createdAt,value
2023-04-17T00:00:54.416Z,97878.31
2023-04-17T00:04:57.633Z,97879.94
2023-04-17T00:09:01.381Z,97874.47
2023-04-17T00:13:06.082Z,97875.13
2023-04-17T00:17:10.821Z,97866.38
2023-04-17T00:21:14.241Z,97863.78
2023-04-17T00:25:18.092Z,97865.41
2023-04-17T00:29:22.552Z,97869.78
2023-04-17T00:33:26.149Z,97864.06
2023-04-17T00:37:29.181Z,97869.25
2023-04-17T00:41:33.045Z,97870.38
2023-04-17T00:45:38.022Z,97867.63
2023-04-17T00:49:42.056Z,97876.41
2023-04-17T00:53:45.989Z,97871.19
2023-04-17T00:57:49.887Z,97869.53
2023-04-17T01:01:54.926Z,97861.09
2023-04-17T01:05:58.651Z,97862.19
2023-04-17T01:10:01.920Z,97866.44
2023-04-17T01:14:05.105Z,97875.31
2023-04-17T01:18:10.298Z,97874.25
2023-04-17T01:22:14.821Z,97879.44
2023-04-17T01:26:21.009Z,97869.97
2023-04-17T01:30:26.329Z,97870.13
2023-04-17T01:34:29.503Z,97871.78
2023-04-17T01:38:33.176Z,97863.28
2023-04-17T01:42:37.916Z,97860.06
2023-04-17T01:46:41.396Z,97867.00
2023-04-17T01:50:46.148Z,97863.72
2023-04-17T01:54:49.418Z,97863.88
2023-04-17T01:58:53.945Z,97865.81
2023-04-17T02:02:57.590Z,97855.03
2023-04-17T02:07:01.188Z,97860.91
2023-04-17T02:11:04.551Z,97871.44
2023-04-17T02:15:11.124Z,97863.50
2023-04-17T02:19:14.636Z,97866.53
2023-04-17T02:23:17.699Z,97871.44
2023-04-17T02:27:21.116Z,97865.41
2023-04-17T02:31:26.070Z,97867.09
2023-04-17T02:35:32.033Z,97871.97
2023-04-17T02:39:35.360Z,97857.63
2023-04-17T02:43:38.729Z,97871.97
2023-04-17T02:47:44.357Z,97865.81
2023-04-17T02:51:47.965Z,97867.59
2023-04-17T02:55:51.262Z,97866.63
2023-04-17T02:59:54.809Z,97864.03
2023-04-17T03:04:00.130Z,97869.06
2023-04-17T03:08:04.716Z,97867.44
2023-04-17T03:12:08.239Z,97864.16
2023-04-17T03:16:12.229Z,97859.78
2023-04-17T03:20:18.099Z,97860.63
2023-04-17T03:24:21.828Z,97859.94
2023-04-17T03:28:26.144Z,97859.09
2023-04-17T03:32:29.534Z,97860.91
2023-04-17T03:36:34.211Z,97855.03
2023-04-17T03:40:37.883Z,97858.59
2023-04-17T03:44:41.571Z,97855.47
2023-04-17T03:48:45.226Z,97870.25
2023-04-17T03:52:49.860Z,97865.06
2023-04-17T03:56:53.489Z,97873.00
2023-04-17T04:00:59.070Z,97875.88
2023-04-17T04:05:02.912Z,97880.25
2023-04-17T04:09:07.838Z,97884.50
2023-04-17T04:13:11.402Z,97866.19
2023-04-17T04:17:14.758Z,97885.31
2023-04-17T04:21:18.322Z,97887.91
2023-04-17T04:25:24.026Z,97889.69
2023-04-17T04:29:28.591Z,97875.19
2023-04-17T04:33:31.941Z,97886.78
2023-04-17T04:37:36.575Z,97881.59
2023-04-17T04:41:46.634Z,97889.25
2023-04-17T04:45:50.305Z,97895.94
2023-04-17T04:49:54.057Z,97894.00
2023-04-17T04:53:57.788Z,97897.28
2023-04-17T04:58:03.255Z,97903.84
2023-04-17T05:02:06.964Z,97896.72
2023-04-17T05:06:11.410Z,97900.66
2023-04-17T05:10:14.755Z,97907.34
2023-04-17T05:14:19.149Z,97899.81
2023-04-17T05:18:22.738Z,97903.75
2023-04-17T05:22:27.812Z,97904.78
2023-04-17T05:26:31.187Z,97908.59
2023-04-17T05:30:36.307Z,97906.53
2023-04-17T05:34:39.676Z,97918.13
2023-04-17T05:38:45.512Z,97917.81
2023-04-17T05:42:49.443Z,97929.56
2023-04-17T05:46:56.942Z,97938.84
2023-04-17T05:51:00.396Z,97931.72
2023-04-17T05:55:03.971Z,97937.28
2023-04-17T05:59:07.348Z,97938.47
2023-04-17T06:03:12.309Z,97941.63
2023-04-17T06:07:15.608Z,97939.66
2023-04-17T06:11:18.875Z,97948.56
2023-04-17T06:15:22.291Z,97955.09
2023-04-17T06:19:26.895Z,97955.44
2023-04-17T06:23:30.205Z,97961.03
2023-04-17T06:27:35.224Z,97965.81
2023-04-17T06:31:40.217Z,97961.09
2023-04-17T06:35:44.805Z,97964.75
2023-04-17T06:39:48.232Z,97972.78
2023-04-17T06:43:51.328Z,97969.59
2023-04-17T06:47:54.785Z,97972.28
2023-04-17T06:51:59.288Z,97976.59
2023-04-17T06:56:02.989Z,97981.50
2023-04-17T07:00:07.485Z,97977.31
2023-04-17T07:04:11.394Z,97970.81
2023-04-17T07:08:18.865Z,97975.13
2023-04-17T07:12:23.117Z,97969.44
2023-04-17T07:16:26.384Z,97977.19
2023-04-17T07:20:30.136Z,97970.88
2023-04-17T07:24:35.214Z,97980.06
2023-04-17T07:28:39.732Z,97982.41
2023-04-17T07:32:43.199Z,97989.97
2023-04-17T07:36:47.807Z,97983.97
2023-04-17T07:40:52.582Z,97988.41
2023-04-17T07:44:55.818Z,97998.22
2023-04-17T07:48:59.439Z,97989.75
2023-04-17T07:53:03.359Z,97993.84
2023-04-17T07:57:08.377Z,97996.06
2023-04-17T08:01:12.222Z,98005.75
2023-04-17T08:05:15.556Z,98002.69
2023-04-17T08:09:18.801Z,98002.88
2023-04-17T08:13:23.442Z,98011.88
2023-04-17T08:17:30.484Z,98018.88
2023-04-17T08:21:33.546Z,98014.47
2023-04-17T08:25:37.012Z,98014.97
2023-04-17T08:29:42.334Z,98013.00
2023-04-17T08:33:45.772Z,98016.75
2023-04-17T08:37:49.203Z,98013.78
2023-04-17T08:42:00.939Z,98023.25
2023-04-17T08:46:08.887Z,98018.88
2023-04-17T08:50:14.278Z,98018.25
2023-04-17T08:54:17.869Z,98015.13
2023-04-17T08:58:24.366Z,98010.56
2023-04-17T09:02:29.534Z,98000.75
2023-04-17T09:06:50.951Z,98000.41
2023-04-17T09:10:56.870Z,98005.00
2023-04-17T09:15:00.171Z,98006.81
2023-04-17T09:19:09.238Z,98010.88
2023-04-17T09:23:13.056Z,98000.41
2023-04-17T09:27:24.144Z,98005.97
2023-04-17T09:31:30.753Z,97997.97
2023-04-17T09:35:40.105Z,97993.25
2023-04-17T09:39:58.306Z,97989.00
2023-04-17T09:44:05.548Z,97991.44
2023-04-17T09:48:11.477Z,97993.88
2023-04-17T09:52:16.121Z,98000.09
2023-04-17T09:56:22.504Z,97998.09
2023-04-17T10:00:27.888Z,97988.97
2023-04-17T10:04:32.094Z,97996.13
2023-04-17T10:08:37.349Z,97992.22
2023-04-17T10:12:42.540Z,97996.78
2023-04-17T10:16:47.349Z,97987.44
2023-04-17T10:20:51.458Z,97987.53
2023-04-17T10:25:19.522Z,97986.50
2023-04-17T10:29:53.793Z,97967.91
2023-04-17T10:33:57.207Z,97951.97
2023-04-17T10:38:08.595Z,97961.50
2023-04-17T10:42:20.356Z,97967.44
2023-04-17T10:46:27.728Z,97966.84
2023-04-17T10:50:31.313Z,97965.44
2023-04-17T10:54:35.251Z,97961.22
2023-04-17T10:58:58.795Z,97957.09
2023-04-17T11:03:03.827Z,97952.34
2023-04-17T11:07:07.515Z,97946.84
2023-04-17T11:11:12.262Z,97945.91
2023-04-17T11:15:17.616Z,97936.69
2023-04-17T11:19:23.324Z,97928.72
2023-04-17T11:23:34.577Z,97929.78
2023-04-17T11:27:37.848Z,97934.13
2023-04-17T11:31:42.476Z,97933.22
2023-04-17T11:35:46.363Z,97936.13
2023-04-17T11:39:50.179Z,97934.47
2023-04-17T11:43:53.343Z,97927.00
2023-04-17T11:47:58.216Z,97932.72
2023-04-17T11:52:03.846Z,97927.22
2023-04-17T11:56:15.285Z,97929.41
2023-04-17T12:00:20.446Z,97931.16
2023-04-17T12:04:26.449Z,97931.66
2023-04-17T12:08:30.727Z,97923.19
2023-04-17T12:12:33.743Z,97917.09
2023-04-17T12:16:36.797Z,97921.59
2023-04-17T12:20:41.112Z,97923.94
2023-04-17T12:24:45.046Z,97915.88
2023-04-17T12:28:49.360Z,97919.38
2023-04-17T12:32:52.778Z,97910.69
2023-04-17T12:36:57.522Z,97909.28
2023-04-17T12:41:01.036Z,97912.13
2023-04-17T12:45:04.414Z,97903.19
2023-04-17T12:49:07.636Z,97907.53
2023-04-17T12:53:13.402Z,97898.53
2023-04-17T12:57:16.877Z,97908.31
2023-04-17T13:01:21.436Z,97897.44
2023-04-17T13:05:24.978Z,97901.75
2023-04-17T13:09:30.827Z,97896.19
2023-04-17T13:13:34.021Z,97898.63
2023-04-17T13:17:37.353Z,97899.22
2023-04-17T13:21:40.726Z,97880.47
2023-04-17T13:25:47.394Z,97877.53
2023-04-17T13:29:50.962Z,97873.38
2023-04-17T13:33:54.310Z,97872.78
2023-04-17T13:38:01.357Z,97863.66
2023-04-17T13:42:06.191Z,97873.34
2023-04-17T13:46:10.240Z,97872.00
2023-04-17T13:50:13.226Z,97869.16
2023-04-17T13:54:16.710Z,97870.41
2023-04-17T13:58:21.099Z,97858.81
2023-04-17T14:02:24.880Z,97861.03
2023-04-17T14:06:29.071Z,97849.84
2023-04-17T14:10:32.696Z,97842.72
2023-04-17T14:14:38.547Z,97838.84
2023-04-17T14:18:41.660Z,97832.16
2023-04-17T14:22:44.864Z,97836.06
2023-04-17T14:26:50.184Z,97827.38
2023-04-17T14:30:54.904Z,97831.84
2023-04-17T14:34:59.744Z,97835.13
2023-04-17T14:39:02.968Z,97826.53
2023-04-17T14:43:06.280Z,97828.06
2023-04-17T14:47:10.814Z,97831.19
2023-04-17T14:51:16.880Z,97828.44
2023-04-17T14:55:25.009Z,97821.50
2023-04-17T14:59:28.918Z,97818.16
2023-04-17T15:03:33.630Z,97816.53
2023-04-17T15:07:38.975Z,97821.91
2023-04-17T15:11:41.995Z,97822.66
2023-04-17T15:15:45.566Z,97819.81
2023-04-17T15:19:50.079Z,97821.78
2023-04-17T15:23:53.524Z,97826.00
2023-04-17T15:27:56.592Z,97831.00
2023-04-17T15:32:00.877Z,97832.53
2023-04-17T15:36:05.794Z,97820.72
2023-04-17T15:40:10.610Z,97825.19
2023-04-17T15:44:13.716Z,97826.34
2023-04-17T15:48:17.280Z,97825.28
2023-04-17T15:52:21.604Z,97819.81
2023-04-17T15:56:25.935Z,97811.66
2023-04-17T16:00:29.207Z,97811.63
2023-04-17T16:04:34.171Z,97814.34
2023-04-17T16:08:38.784Z,97816.66
2023-04-17T16:12:43.993Z,97814.53
2023-04-17T16:16:47.472Z,97828.94
2023-04-17T16:20:51.389Z,97838.03
2023-04-17T16:24:55.870Z,97838.84
2023-04-17T16:29:00.602Z,97844.13
2023-04-17T16:33:04.242Z,97849.47
2023-04-17T16:37:07.951Z,97844.28
2023-04-17T16:41:12.769Z,97843.34
2023-04-17T16:45:16.458Z,97843.97
2023-04-17T16:49:19.605Z,97842.31
2023-04-17T16:53:23.296Z,97842.59
2023-04-17T16:57:27.934Z,97837.94
2023-04-17T17:01:31.315Z,97844.56
2023-04-17T17:05:34.384Z,97840.38
2023-04-17T17:09:37.643Z,97850.06
2023-04-17T17:13:42.444Z,97847.31
2023-04-17T17:17:46.222Z,97843.09
2023-04-17T17:21:50.170Z,97848.69
2023-04-17T17:25:56.987Z,97841.19
2023-04-17T17:30:01.779Z,97855.06
2023-04-17T17:34:22.605Z,97851.34
2023-04-17T17:38:30.846Z,97861.78
2023-04-17T17:42:34.196Z,97870.63
2023-04-17T17:46:39.198Z,97907.59
2023-04-17T17:50:43.126Z,97909.84
2023-04-17T17:54:47.508Z,97912.63
2023-04-17T17:58:51.719Z,97905.63
2023-04-17T18:02:56.819Z,97900.75
2023-04-17T18:07:00.584Z,97910.25
2023-04-17T18:11:04.860Z,97906.34
2023-04-17T18:15:12.727Z,97906.84
2023-04-17T18:19:17.518Z,97910.59
2023-04-17T18:23:21.131Z,97905.03
2023-04-17T18:27:24.630Z,97907.25
2023-04-17T18:31:28.786Z,97901.53
2023-04-17T18:35:35.782Z,97896.09
2023-04-17T18:39:39.321Z,97899.06
2023-04-17T18:43:42.678Z,97885.34
2023-04-17T18:47:46.839Z,97905.38
2023-04-17T18:51:51.455Z,97901.00
2023-04-17T18:55:55.980Z,97897.41
2023-04-17T18:59:59.253Z,97901.94
2023-04-17T19:04:02.840Z,97900.66
2023-04-17T19:08:07.969Z,97904.75
2023-04-17T19:12:11.959Z,97901.16
2023-04-17T19:16:15.572Z,97926.09
2023-04-17T19:20:19.775Z,97933.31
2023-04-17T19:24:24.309Z,97934.63
2023-04-17T19:28:28.713Z,97932.31
2023-04-17T19:32:32.124Z,97934.56
2023-04-17T19:36:39.083Z,97882.59
2023-04-17T19:40:43.692Z,97938.59
2023-04-17T19:44:47.302Z,97979.03
2023-04-17T19:48:59.673Z,97986.69
2023-04-17T19:53:03.467Z,97979.50
2023-04-17T20:12:10.646Z,97895.38
2023-04-17T20:16:13.969Z,97889.53
2023-04-17T20:20:17.324Z,97900.63
2023-04-17T20:24:20.685Z,97920.88
2023-04-17T20:28:28.922Z,97897.72
2023-04-17T20:32:32.223Z,97908.34
2023-04-17T20:36:38.016Z,97897.75
2023-04-17T20:40:41.837Z,97888.31
2023-04-17T20:44:46.568Z,97896.81
2023-04-17T20:48:50.218Z,97908.19
2023-04-17T20:52:53.488Z,97912.44
2023-04-17T20:56:57.672Z,97915.69
2023-04-17T21:01:02.405Z,97911.97
2023-04-17T21:05:06.772Z,97925.50
2023-04-17T21:09:11.912Z,97934.00
2023-04-17T21:13:15.330Z,97948.34
2023-04-17T21:17:20.160Z,97957.50
2023-04-17T21:21:23.571Z,97959.13
2023-04-17T21:25:26.944Z,97952.28
2023-04-17T21:29:30.975Z,97945.13
2023-04-17T21:33:36.753Z,97932.56
2023-04-17T21:37:40.359Z,97922.53
2023-04-17T21:41:43.769Z,97924.66
2023-04-17T21:45:47.083Z,97927.09
2023-04-17T21:49:51.696Z,97924.81
2023-04-17T21:53:55.219Z,97923.09
2023-04-17T21:57:58.410Z,97927.19
2023-04-17T22:02:04.040Z,97921.66
2023-04-17T22:06:09.667Z,97921.38
2023-04-17T22:10:15.704Z,97917.66
2023-04-17T22:14:19.292Z,97926.13
2023-04-17T22:18:22.930Z,97924.03
2023-04-17T22:22:27.536Z,97916.06
2023-04-17T22:26:31.968Z,97912.47
2023-04-17T22:30:35.164Z,97920.97
2023-04-17T22:34:41.931Z,97919.00
2023-04-17T22:38:48.005Z,97920.63
2023-04-17T22:42:52.265Z,97929.28
2023-04-17T22:46:55.639Z,97915.28
2023-04-17T22:51:00.440Z,97919.69
2023-04-17T22:55:06.813Z,97924.38
2023-04-17T22:59:11.055Z,97925.00
2023-04-17T23:03:14.497Z,97930.50
2023-04-17T23:07:21.281Z,97932.47
2023-04-17T23:11:25.943Z,97936.84
2023-04-17T23:15:29.881Z,97935.91
2023-04-17T23:19:33.011Z,97930.34
2023-04-17T23:23:37.371Z,97939.66
2023-04-17T23:27:42.486Z,97929.09
2023-04-17T23:31:47.971Z,97933.47
2023-04-17T23:35:52.486Z,97925.66
2023-04-17T23:39:57.194Z,97928.28
2023-04-17T23:44:02.530Z,97922.06
2023-04-17T23:48:06.089Z,97919.47
2023-04-17T23:52:09.433Z,97912.47
2023-04-17T23:56:12.997Z,97906.28
